sensor_id;sensor_type;location;lat;lon;timestamp;P1;durP1;ratioP1;P2;durP2;ratioP2
12302;SDS011;6214;48.012;7.862;2023-11-19T00:00:14;4.00;;;0.50;;
12302;SDS011;6214;48.012;7.862;2023-11-19T00:02:41;4.20;;;0.60;;
12302;SDS011;6214;48.012;7.862;2023-11-19T00:05:10;4.20;;;0.70;;
12302;SDS011;6214;48.012;7.862;2023-11-19T00:07:47;4.28;;;0.60;;
12302;SDS011;6214;48.012;7.862;2023-11-19T00:10:16;4.50;;;0.73;;
12302;SDS011;6214;48.012;7.862;2023-11-19T00:12:47;4.22;;;0.60;;
12302;SDS011;6214;48.012;7.862;2023-11-19T00:15:16;4.10;;;0.50;;
12302;SDS011;6214;48.012;7.862;2023-11-19T00:17:45;4.10;;;0.50;;
12302;SDS011;6214;48.012;7.862;2023-11-19T00:20:16;4.10;;;0.60;;
12302;SDS011;6214;48.012;7.862;2023-11-19T00:22:48;4.10;;;0.60;;
12302;SDS011;6214;48.012;7.862;2023-11-19T00:25:18;4.10;;;0.50;;
12302;SDS011;6214;48.012;7.862;2023-11-19T00:27:46;3.95;;;0.50;;
12302;SDS011;6214;48.012;7.862;2023-11-19T00:30:13;4.40;;;0.60;;
12302;SDS011;6214;48.012;7.862;2023-11-19T00:32:41;4.40;;;0.73;;
12302;SDS011;6214;48.012;7.862;2023-11-19T00:35:09;4.55;;;0.80;;
12302;SDS011;6214;48.012;7.862;2023-11-19T00:37:42;4.10;;;0.60;;
12302;SDS011;6214;48.012;7.862;2023-11-19T00:40:09;4.85;;;0.95;;
12302;SDS011;6214;48.012;7.862;2023-11-19T00:42:37;4.20;;;0.75;;
12302;SDS011;6214;48.012;7.862;2023-11-19T00:45:05;4.00;;;0.60;;
12302;SDS011;6214;48.012;7.862;2023-11-19T00:47:36;4.00;;;0.60;;
12302;SDS011;6214;48.012;7.862;2023-11-19T00:50:03;4.40;;;0.60;;
12302;SDS011;6214;48.012;7.862;2023-11-19T00:52:30;4.40;;;0.80;;
12302;SDS011;6214;48.012;7.862;2023-11-19T00:54:57;5.28;;;0.70;;
12302;SDS011;6214;48.012;7.862;2023-11-19T00:57:24;4.20;;;0.70;;
12302;SDS011;6214;48.012;7.862;2023-11-19T00:59:52;6.20;;;0.90;;
12302;SDS011;6214;48.012;7.862;2023-11-19T01:02:20;4.20;;;0.63;;
12302;SDS011;6214;48.012;7.862;2023-11-19T01:04:47;6.05;;;0.70;;
12302;SDS011;6214;48.012;7.862;2023-11-19T01:07:14;4.20;;;0.60;;
12302;SDS011;6214;48.012;7.862;2023-11-19T01:09:41;4.40;;;0.70;;
12302;SDS011;6214;48.012;7.862;2023-11-19T01:12:09;4.28;;;0.80;;
12302;SDS011;6214;48.012;7.862;2023-11-19T01:14:37;4.40;;;0.70;;
12302;SDS011;6214;48.012;7.862;2023-11-19T01:17:04;4.22;;;0.70;;
12302;SDS011;6214;48.012;7.862;2023-11-19T01:19:31;4.30;;;0.75;;
12302;SDS011;6214;48.012;7.862;2023-11-19T01:21:58;5.18;;;0.88;;
12302;SDS011;6214;48.012;7.862;2023-11-19T01:24:25;4.22;;;0.60;;
12302;SDS011;6214;48.012;7.862;2023-11-19T01:26:54;5.00;;;0.60;;
12302;SDS011;6214;48.012;7.862;2023-11-19T01:29:22;4.30;;;0.60;;
12302;SDS011;6214;48.012;7.862;2023-11-19T01:31:48;4.10;;;0.50;;
12302;SDS011;6214;48.012;7.862;2023-11-19T01:34:17;4.00;;;0.60;;
12302;SDS011;6214;48.012;7.862;2023-11-19T01:36:44;5.00;;;0.70;;
12302;SDS011;6214;48.012;7.862;2023-11-19T01:39:12;4.10;;;0.50;;
12302;SDS011;6214;48.012;7.862;2023-11-19T01:41:42;4.18;;;0.60;;
12302;SDS011;6214;48.012;7.862;2023-11-19T01:44:09;4.13;;;0.50;;
12302;SDS011;6214;48.012;7.862;2023-11-19T01:46:39;4.20;;;0.70;;
12302;SDS011;6214;48.012;7.862;2023-11-19T01:49:08;3.90;;;0.50;;
12302;SDS011;6214;48.012;7.862;2023-11-19T01:51:35;4.00;;;0.50;;
12302;SDS011;6214;48.012;7.862;2023-11-19T01:54:03;4.10;;;0.60;;
12302;SDS011;6214;48.012;7.862;2023-11-19T01:56:30;4.00;;;0.50;;
12302;SDS011;6214;48.012;7.862;2023-11-19T01:58:58;4.10;;;0.50;;
12302;SDS011;6214;48.012;7.862;2023-11-19T02:01:25;4.30;;;0.60;;
12302;SDS011;6214;48.012;7.862;2023-11-19T02:03:53;4.10;;;0.60;;
12302;SDS011;6214;48.012;7.862;2023-11-19T02:06:20;4.47;;;0.90;;
12302;SDS011;6214;48.012;7.862;2023-11-19T02:08:47;4.30;;;0.90;;
12302;SDS011;6214;48.012;7.862;2023-11-19T02:11:14;4.57;;;0.80;;
12302;SDS011;6214;48.012;7.862;2023-11-19T02:13:41;4.20;;;0.80;;
12302;SDS011;6214;48.012;7.862;2023-11-19T02:16:08;4.20;;;0.82;;
12302;SDS011;6214;48.012;7.862;2023-11-19T02:18:36;4.10;;;0.70;;
12302;SDS011;6214;48.012;7.862;2023-11-19T02:21:02;4.20;;;0.80;;
12302;SDS011;6214;48.012;7.862;2023-11-19T02:23:31;4.20;;;0.70;;
12302;SDS011;6214;48.012;7.862;2023-11-19T02:28:57;4.70;;;0.80;;
12302;SDS011;6214;48.012;7.862;2023-11-19T02:31:24;4.50;;;1.00;;
12302;SDS011;6214;48.012;7.862;2023-11-19T02:33:54;4.55;;;1.00;;
12302;SDS011;6214;48.012;7.862;2023-11-19T02:36:21;4.80;;;1.20;;
12302;SDS011;6214;48.012;7.862;2023-11-19T02:38:48;4.30;;;0.80;;
12302;SDS011;6214;48.012;7.862;2023-11-19T02:41:15;4.65;;;1.00;;
12302;SDS011;6214;48.012;7.862;2023-11-19T02:43:42;4.70;;;1.00;;
12302;SDS011;6214;48.012;7.862;2023-11-19T02:46:09;5.97;;;1.00;;
12302;SDS011;6214;48.012;7.862;2023-11-19T02:48:40;4.63;;;1.00;;
12302;SDS011;6214;48.012;7.862;2023-11-19T02:51:08;4.20;;;0.80;;
12302;SDS011;6214;48.012;7.862;2023-11-19T02:53:36;4.88;;;0.90;;
12302;SDS011;6214;48.012;7.862;2023-11-19T02:56:07;4.40;;;0.80;;
12302;SDS011;6214;48.012;7.862;2023-11-19T02:58:54;4.50;;;0.80;;
12302;SDS011;6214;48.012;7.862;2023-11-19T03:01:22;6.10;;;0.80;;
12302;SDS011;6214;48.012;7.862;2023-11-19T03:03:50;4.90;;;0.80;;
12302;SDS011;6214;48.012;7.862;2023-11-19T03:06:21;4.75;;;0.80;;
12302;SDS011;6214;48.012;7.862;2023-11-19T03:08:48;9.02;;;0.90;;
12302;SDS011;6214;48.012;7.862;2023-11-19T03:11:15;4.20;;;0.70;;
12302;SDS011;6214;48.012;7.862;2023-11-19T03:13:42;4.10;;;0.70;;
12302;SDS011;6214;48.012;7.862;2023-11-19T03:16:09;4.78;;;0.80;;
12302;SDS011;6214;48.012;7.862;2023-11-19T03:18:38;4.90;;;0.90;;
12302;SDS011;6214;48.012;7.862;2023-11-19T03:21:06;4.60;;;0.80;;
12302;SDS011;6214;48.012;7.862;2023-11-19T03:23:34;4.80;;;0.80;;
12302;SDS011;6214;48.012;7.862;2023-11-19T03:26:02;5.10;;;0.70;;
12302;SDS011;6214;48.012;7.862;2023-11-19T03:28:32;4.70;;;0.80;;
12302;SDS011;6214;48.012;7.862;2023-11-19T03:30:59;4.60;;;0.80;;
12302;SDS011;6214;48.012;7.862;2023-11-19T03:33:26;4.50;;;0.60;;
12302;SDS011;6214;48.012;7.862;2023-11-19T03:35:54;4.50;;;0.70;;
12302;SDS011;6214;48.012;7.862;2023-11-19T03:38:23;4.90;;;0.70;;
12302;SDS011;6214;48.012;7.862;2023-11-19T03:40:51;4.50;;;0.60;;
12302;SDS011;6214;48.012;7.862;2023-11-19T03:43:18;4.60;;;0.60;;
12302;SDS011;6214;48.012;7.862;2023-11-19T03:45:48;4.43;;;0.60;;
12302;SDS011;6214;48.012;7.862;2023-11-19T03:48:15;4.40;;;0.60;;
12302;SDS011;6214;48.012;7.862;2023-11-19T03:50:43;4.40;;;0.60;;
12302;SDS011;6214;48.012;7.862;2023-11-19T03:53:11;4.60;;;0.60;;
12302;SDS011;6214;48.012;7.862;2023-11-19T03:55:38;4.40;;;0.60;;
12302;SDS011;6214;48.012;7.862;2023-11-19T03:58:05;4.40;;;0.60;;
12302;SDS011;6214;48.012;7.862;2023-11-19T04:00:32;4.50;;;0.60;;
12302;SDS011;6214;48.012;7.862;2023-11-19T04:02:59;4.40;;;0.60;;
12302;SDS011;6214;48.012;7.862;2023-11-19T04:05:27;4.80;;;0.50;;
12302;SDS011;6214;48.012;7.862;2023-11-19T04:07:53;4.30;;;0.50;;
12302;SDS011;6214;48.012;7.862;2023-11-19T04:10:20;4.80;;;0.60;;
12302;SDS011;6214;48.012;7.862;2023-11-19T04:12:49;4.30;;;0.50;;
12302;SDS011;6214;48.012;7.862;2023-11-19T04:15:16;4.40;;;0.50;;
12302;SDS011;6214;48.012;7.862;2023-11-19T04:17:43;4.40;;;0.50;;
12302;SDS011;6214;48.012;7.862;2023-11-19T04:20:11;4.30;;;0.50;;
12302;SDS011;6214;48.012;7.862;2023-11-19T04:22:41;4.43;;;0.50;;
12302;SDS011;6214;48.012;7.862;2023-11-19T04:25:08;4.40;;;0.50;;
12302;SDS011;6214;48.012;7.862;2023-11-19T04:27:35;4.40;;;0.50;;
12302;SDS011;6214;48.012;7.862;2023-11-19T04:30:03;4.60;;;0.50;;
12302;SDS011;6214;48.012;7.862;2023-11-19T04:32:31;4.30;;;0.50;;
12302;SDS011;6214;48.012;7.862;2023-11-19T04:34:58;4.30;;;0.40;;
12302;SDS011;6214;48.012;7.862;2023-11-19T04:37:25;4.40;;;0.50;;
12302;SDS011;6214;48.012;7.862;2023-11-19T04:39:52;4.30;;;0.40;;
12302;SDS011;6214;48.012;7.862;2023-11-19T04:42:19;4.30;;;0.40;;
12302;SDS011;6214;48.012;7.862;2023-11-19T04:44:49;4.30;;;0.40;;
12302;SDS011;6214;48.012;7.862;2023-11-19T04:47:16;4.50;;;0.50;;
12302;SDS011;6214;48.012;7.862;2023-11-19T04:49:43;4.80;;;0.60;;
12302;SDS011;6214;48.012;7.862;2023-11-19T04:52:10;4.30;;;0.40;;
12302;SDS011;6214;48.012;7.862;2023-11-19T04:54:41;4.50;;;0.40;;
12302;SDS011;6214;48.012;7.862;2023-11-19T04:57:12;4.30;;;0.40;;
12302;SDS011;6214;48.012;7.862;2023-11-19T04:59:39;4.40;;;0.40;;
12302;SDS011;6214;48.012;7.862;2023-11-19T05:02:06;4.30;;;0.40;;
12302;SDS011;6214;48.012;7.862;2023-11-19T05:04:34;4.40;;;0.40;;
12302;SDS011;6214;48.012;7.862;2023-11-19T05:07:01;4.20;;;0.40;;
12302;SDS011;6214;48.012;7.862;2023-11-19T05:09:29;4.20;;;0.40;;
12302;SDS011;6214;48.012;7.862;2023-11-19T05:11:57;4.40;;;0.40;;
12302;SDS011;6214;48.012;7.862;2023-11-19T05:14:24;4.30;;;0.40;;
12302;SDS011;6214;48.012;7.862;2023-11-19T05:16:51;4.50;;;0.40;;
12302;SDS011;6214;48.012;7.862;2023-11-19T05:19:18;4.37;;;0.40;;
12302;SDS011;6214;48.012;7.862;2023-11-19T05:21:45;4.40;;;0.50;;
12302;SDS011;6214;48.012;7.862;2023-11-19T05:24:12;4.40;;;0.50;;
12302;SDS011;6214;48.012;7.862;2023-11-19T05:26:39;4.60;;;0.45;;
12302;SDS011;6214;48.012;7.862;2023-11-19T05:29:06;4.30;;;0.40;;
12302;SDS011;6214;48.012;7.862;2023-11-19T05:31:33;4.60;;;0.40;;
12302;SDS011;6214;48.012;7.862;2023-11-19T05:34:03;4.30;;;0.40;;
12302;SDS011;6214;48.012;7.862;2023-11-19T05:36:30;4.30;;;0.40;;
12302;SDS011;6214;48.012;7.862;2023-11-19T05:38:57;4.30;;;0.40;;
12302;SDS011;6214;48.012;7.862;2023-11-19T05:41:24;4.30;;;0.40;;
12302;SDS011;6214;48.012;7.862;2023-11-19T05:43:51;4.30;;;0.40;;
12302;SDS011;6214;48.012;7.862;2023-11-19T05:46:18;4.50;;;0.60;;
12302;SDS011;6214;48.012;7.862;2023-11-19T05:48:46;4.45;;;0.50;;
12302;SDS011;6214;48.012;7.862;2023-11-19T05:51:14;4.30;;;0.40;;
12302;SDS011;6214;48.012;7.862;2023-11-19T05:53:44;4.30;;;0.40;;
12302;SDS011;6214;48.012;7.862;2023-11-19T05:56:16;4.30;;;0.40;;
12302;SDS011;6214;48.012;7.862;2023-11-19T05:58:47;4.30;;;0.32;;
12302;SDS011;6214;48.012;7.862;2023-11-19T06:01:15;4.30;;;0.40;;
12302;SDS011;6214;48.012;7.862;2023-11-19T06:03:43;4.28;;;0.40;;
12302;SDS011;6214;48.012;7.862;2023-11-19T06:06:13;4.30;;;0.40;;
12302;SDS011;6214;48.012;7.862;2023-11-19T06:08:40;4.30;;;0.30;;
12302;SDS011;6214;48.012;7.862;2023-11-19T06:11:09;4.30;;;0.40;;
12302;SDS011;6214;48.012;7.862;2023-11-19T06:13:41;4.30;;;0.40;;
12302;SDS011;6214;48.012;7.862;2023-11-19T06:16:09;4.50;;;0.40;;
12302;SDS011;6214;48.012;7.862;2023-11-19T06:18:36;4.30;;;0.45;;
12302;SDS011;6214;48.012;7.862;2023-11-19T06:21:04;4.30;;;0.40;;
12302;SDS011;6214;48.012;7.862;2023-11-19T06:23:31;4.30;;;0.40;;
12302;SDS011;6214;48.012;7.862;2023-11-19T06:25:58;4.40;;;0.40;;
12302;SDS011;6214;48.012;7.862;2023-11-19T06:28:25;4.30;;;0.40;;
12302;SDS011;6214;48.012;7.862;2023-11-19T06:30:52;4.40;;;0.40;;
12302;SDS011;6214;48.012;7.862;2023-11-19T06:33:19;4.30;;;0.40;;
12302;SDS011;6214;48.012;7.862;2023-11-19T06:35:46;4.30;;;0.40;;
12302;SDS011;6214;48.012;7.862;2023-11-19T06:38:13;4.30;;;0.47;;
12302;SDS011;6214;48.012;7.862;2023-11-19T06:40:40;4.50;;;0.50;;
12302;SDS011;6214;48.012;7.862;2023-11-19T06:43:07;4.30;;;0.40;;
12302;SDS011;6214;48.012;7.862;2023-11-19T06:45:37;4.60;;;0.40;;
12302;SDS011;6214;48.012;7.862;2023-11-19T06:48:04;4.40;;;0.40;;
12302;SDS011;6214;48.012;7.862;2023-11-19T06:50:32;4.30;;;0.40;;
12302;SDS011;6214;48.012;7.862;2023-11-19T06:52:59;4.40;;;0.45;;
12302;SDS011;6214;48.012;7.862;2023-11-19T06:55:26;4.40;;;0.40;;
12302;SDS011;6214;48.012;7.862;2023-11-19T06:57:54;4.40;;;0.40;;
12302;SDS011;6214;48.012;7.862;2023-11-19T07:00:20;4.30;;;0.40;;
12302;SDS011;6214;48.012;7.862;2023-11-19T07:02:48;4.40;;;0.40;;
12302;SDS011;6214;48.012;7.862;2023-11-19T07:05:16;4.40;;;0.40;;
12302;SDS011;6214;48.012;7.862;2023-11-19T07:07:43;4.40;;;0.40;;
12302;SDS011;6214;48.012;7.862;2023-11-19T07:10:12;4.40;;;0.50;;
12302;SDS011;6214;48.012;7.862;2023-11-19T07:12:39;4.40;;;0.50;;
12302;SDS011;6214;48.012;7.862;2023-11-19T07:15:07;4.40;;;0.50;;
12302;SDS011;6214;48.012;7.862;2023-11-19T07:17:39;4.30;;;0.40;;
12302;SDS011;6214;48.012;7.862;2023-11-19T07:20:06;4.60;;;0.50;;
12302;SDS011;6214;48.012;7.862;2023-11-19T07:22:34;4.40;;;0.50;;
12302;SDS011;6214;48.012;7.862;2023-11-19T07:25:01;4.45;;;0.50;;
12302;SDS011;6214;48.012;7.862;2023-11-19T07:27:28;4.90;;;0.60;;
12302;SDS011;6214;48.012;7.862;2023-11-19T07:29:55;4.40;;;0.40;;
12302;SDS011;6214;48.012;7.862;2023-11-19T07:32:22;4.40;;;0.40;;
12302;SDS011;6214;48.012;7.862;2023-11-19T07:34:49;4.70;;;0.55;;
12302;SDS011;6214;48.012;7.862;2023-11-19T07:37:16;4.40;;;0.50;;
12302;SDS011;6214;48.012;7.862;2023-11-19T07:39:43;4.32;;;0.40;;
12302;SDS011;6214;48.012;7.862;2023-11-19T07:42:10;4.30;;;0.40;;
12302;SDS011;6214;48.012;7.862;2023-11-19T07:44:37;4.40;;;0.40;;
12302;SDS011;6214;48.012;7.862;2023-11-19T07:47:04;4.70;;;0.40;;
12302;SDS011;6214;48.012;7.862;2023-11-19T07:49:31;4.40;;;0.50;;
12302;SDS011;6214;48.012;7.862;2023-11-19T07:51:58;4.45;;;0.50;;
12302;SDS011;6214;48.012;7.862;2023-11-19T07:54:25;4.50;;;0.50;;
12302;SDS011;6214;48.012;7.862;2023-11-19T07:56:52;4.43;;;0.50;;
12302;SDS011;6214;48.012;7.862;2023-11-19T07:59:19;4.60;;;0.50;;
12302;SDS011;6214;48.012;7.862;2023-11-19T08:01:46;4.40;;;0.50;;
12302;SDS011;6214;48.012;7.862;2023-11-19T08:04:14;4.50;;;0.50;;
12302;SDS011;6214;48.012;7.862;2023-11-19T08:06:41;4.40;;;0.50;;
12302;SDS011;6214;48.012;7.862;2023-11-19T08:09:08;4.50;;;0.60;;
12302;SDS011;6214;48.012;7.862;2023-11-19T08:11:43;4.40;;;0.50;;
12302;SDS011;6214;48.012;7.862;2023-11-19T08:14:11;3.90;;;0.50;;
12302;SDS011;6214;48.012;7.862;2023-11-19T08:16:39;5.03;;;0.47;;
12302;SDS011;6214;48.012;7.862;2023-11-19T08:19:06;4.10;;;0.50;;
12302;SDS011;6214;48.012;7.862;2023-11-19T08:21:35;3.80;;;0.50;;
12302;SDS011;6214;48.012;7.862;2023-11-19T08:24:02;3.90;;;0.50;;
12302;SDS011;6214;48.012;7.862;2023-11-19T08:26:29;3.88;;;0.57;;
12302;SDS011;6214;48.012;7.862;2023-11-19T08:28:56;4.00;;;0.60;;
12302;SDS011;6214;48.012;7.862;2023-11-19T08:31:24;4.88;;;0.90;;
12302;SDS011;6214;48.012;7.862;2023-11-19T08:33:52;4.00;;;0.70;;
12302;SDS011;6214;48.012;7.862;2023-11-19T08:36:19;4.00;;;0.60;;
12302;SDS011;6214;48.012;7.862;2023-11-19T08:38:46;3.88;;;0.50;;
12302;SDS011;6214;48.012;7.862;2023-11-19T08:41:15;3.70;;;0.40;;
12302;SDS011;6214;48.012;7.862;2023-11-19T08:43:44;4.00;;;0.50;;
12302;SDS011;6214;48.012;7.862;2023-11-19T08:46:11;4.00;;;0.60;;
12302;SDS011;6214;48.012;7.862;2023-11-19T08:48:38;4.00;;;0.60;;
12302;SDS011;6214;48.012;7.862;2023-11-19T08:51:05;3.80;;;0.50;;
12302;SDS011;6214;48.012;7.862;2023-11-19T08:53:33;3.95;;;0.60;;
12302;SDS011;6214;48.012;7.862;2023-11-19T08:56:00;3.80;;;0.50;;
12302;SDS011;6214;48.012;7.862;2023-11-19T08:58:29;3.80;;;0.50;;
12302;SDS011;6214;48.012;7.862;2023-11-19T09:00:57;3.90;;;0.60;;
12302;SDS011;6214;48.012;7.862;2023-11-19T09:03:24;4.50;;;0.70;;
12302;SDS011;6214;48.012;7.862;2023-11-19T09:05:53;3.90;;;0.50;;
12302;SDS011;6214;48.012;7.862;2023-11-19T09:08:20;4.18;;;0.60;;
12302;SDS011;6214;48.012;7.862;2023-11-19T09:10:47;4.70;;;0.60;;
12302;SDS011;6214;48.012;7.862;2023-11-19T09:13:14;4.00;;;0.57;;
12302;SDS011;6214;48.012;7.862;2023-11-19T09:15:41;4.00;;;0.60;;
12302;SDS011;6214;48.012;7.862;2023-11-19T09:18:09;4.30;;;0.60;;
12302;SDS011;6214;48.012;7.862;2023-11-19T09:20:36;4.00;;;0.60;;
12302;SDS011;6214;48.012;7.862;2023-11-19T09:23:05;3.83;;;0.50;;
12302;SDS011;6214;48.012;7.862;2023-11-19T09:25:33;3.80;;;0.50;;
12302;SDS011;6214;48.012;7.862;2023-11-19T09:28:03;4.22;;;0.57;;
12302;SDS011;6214;48.012;7.862;2023-11-19T09:30:30;3.90;;;0.50;;
12302;SDS011;6214;48.012;7.862;2023-11-19T09:33:00;3.80;;;0.40;;
12302;SDS011;6214;48.012;7.862;2023-11-19T09:35:28;4.00;;;0.60;;
12302;SDS011;6214;48.012;7.862;2023-11-19T09:37:55;3.85;;;0.57;;
12302;SDS011;6214;48.012;7.862;2023-11-19T09:40:22;4.50;;;0.50;;
12302;SDS011;6214;48.012;7.862;2023-11-19T09:42:49;3.80;;;0.50;;
12302;SDS011;6214;48.012;7.862;2023-11-19T09:45:17;4.00;;;0.60;;
12302;SDS011;6214;48.012;7.862;2023-11-19T09:47:47;4.00;;;0.50;;
12302;SDS011;6214;48.012;7.862;2023-11-19T09:50:19;4.00;;;0.50;;
12302;SDS011;6214;48.012;7.862;2023-11-19T09:52:46;4.40;;;0.80;;
12302;SDS011;6214;48.012;7.862;2023-11-19T09:55:14;5.00;;;0.80;;
12302;SDS011;6214;48.012;7.862;2023-11-19T09:57:41;4.68;;;0.90;;
12302;SDS011;6214;48.012;7.862;2023-11-19T10:00:10;4.80;;;1.00;;
12302;SDS011;6214;48.012;7.862;2023-11-19T10:02:41;4.40;;;0.90;;
12302;SDS011;6214;48.012;7.862;2023-11-19T10:05:13;4.10;;;0.70;;
12302;SDS011;6214;48.012;7.862;2023-11-19T10:07:41;3.90;;;0.50;;
12302;SDS011;6214;48.012;7.862;2023-11-19T10:10:09;3.80;;;0.50;;
12302;SDS011;6214;48.012;7.862;2023-11-19T10:12:40;3.95;;;0.70;;
12302;SDS011;6214;48.012;7.862;2023-11-19T10:15:24;4.10;;;0.60;;
12302;SDS011;6214;48.012;7.862;2023-11-19T10:17:56;3.90;;;0.50;;
12302;SDS011;6214;48.012;7.862;2023-11-19T10:20:24;3.80;;;0.50;;
12302;SDS011;6214;48.012;7.862;2023-11-19T10:22:55;3.95;;;0.70;;
12302;SDS011;6214;48.012;7.862;2023-11-19T10:25:26;3.90;;;0.50;;
12302;SDS011;6214;48.012;7.862;2023-11-19T10:27:55;3.80;;;0.50;;
12302;SDS011;6214;48.012;7.862;2023-11-19T10:30:27;4.00;;;0.70;;
12302;SDS011;6214;48.012;7.862;2023-11-19T10:33:04;3.80;;;0.50;;
12302;SDS011;6214;48.012;7.862;2023-11-19T10:35:33;4.18;;;0.50;;
12302;SDS011;6214;48.012;7.862;2023-11-19T10:38:14;3.80;;;0.50;;
12302;SDS011;6214;48.012;7.862;2023-11-19T10:40:42;4.00;;;0.60;;
12302;SDS011;6214;48.012;7.862;2023-11-19T10:43:09;3.90;;;0.60;;
12302;SDS011;6214;48.012;7.862;2023-11-19T10:45:36;4.00;;;0.50;;
12302;SDS011;6214;48.012;7.862;2023-11-19T10:48:04;3.90;;;0.50;;
12302;SDS011;6214;48.012;7.862;2023-11-19T10:50:36;4.10;;;0.60;;
12302;SDS011;6214;48.012;7.862;2023-11-19T10:53:04;4.40;;;0.60;;
12302;SDS011;6214;48.012;7.862;2023-11-19T10:55:32;3.95;;;0.57;;
12302;SDS011;6214;48.012;7.862;2023-11-19T10:58:10;3.90;;;0.50;;
12302;SDS011;6214;48.012;7.862;2023-11-19T11:00:51;4.20;;;0.60;;
12302;SDS011;6214;48.012;7.862;2023-11-19T11:03:24;3.80;;;0.50;;
12302;SDS011;6214;48.012;7.862;2023-11-19T11:05:53;4.30;;;0.50;;
12302;SDS011;6214;48.012;7.862;2023-11-19T11:08:20;3.80;;;0.50;;
12302;SDS011;6214;48.012;7.862;2023-11-19T11:10:54;4.00;;;0.50;;
12302;SDS011;6214;48.012;7.862;2023-11-19T11:13:24;3.80;;;0.50;;
12302;SDS011;6214;48.012;7.862;2023-11-19T11:15:54;4.00;;;0.50;;
12302;SDS011;6214;48.012;7.862;2023-11-19T11:18:24;4.00;;;0.50;;
12302;SDS011;6214;48.012;7.862;2023-11-19T11:20:52;4.90;;;0.50;;
12302;SDS011;6214;48.012;7.862;2023-11-19T11:26:16;4.00;;;0.60;;
12302;SDS011;6214;48.012;7.862;2023-11-19T11:29:05;3.90;;;0.52;;
12302;SDS011;6214;48.012;7.862;2023-11-19T11:39:59;3.80;;;0.50;;
12302;SDS011;6214;48.012;7.862;2023-11-19T11:45:10;4.18;;;0.70;;
12302;SDS011;6214;48.012;7.862;2023-11-19T11:58:05;4.28;;;0.70;;
12302;SDS011;6214;48.012;7.862;2023-11-19T12:00:33;4.60;;;0.93;;
12302;SDS011;6214;48.012;7.862;2023-11-19T12:03:04;4.30;;;0.70;;
12302;SDS011;6214;48.012;7.862;2023-11-19T12:05:33;4.00;;;0.60;;
12302;SDS011;6214;48.012;7.862;2023-11-19T12:08:14;4.20;;;0.60;;
12302;SDS011;6214;48.012;7.862;2023-11-19T12:10:52;4.00;;;0.60;;
12302;SDS011;6214;48.012;7.862;2023-11-19T12:13:20;4.20;;;0.50;;
12302;SDS011;6214;48.012;7.862;2023-11-19T12:18:27;4.10;;;0.60;;
12302;SDS011;6214;48.012;7.862;2023-11-19T12:20:58;4.05;;;0.60;;
12302;SDS011;6214;48.012;7.862;2023-11-19T12:23:29;4.10;;;0.63;;
12302;SDS011;6214;48.012;7.862;2023-11-19T12:25:57;4.10;;;0.60;;
12302;SDS011;6214;48.012;7.862;2023-11-19T12:28:24;4.50;;;0.70;;
12302;SDS011;6214;48.012;7.862;2023-11-19T12:30:54;4.28;;;0.75;;
12302;SDS011;6214;48.012;7.862;2023-11-19T12:33:36;4.10;;;0.70;;
12302;SDS011;6214;48.012;7.862;2023-11-19T12:36:04;4.47;;;0.60;;
12302;SDS011;6214;48.012;7.862;2023-11-19T12:38:32;4.65;;;0.90;;
12302;SDS011;6214;48.012;7.862;2023-11-19T12:41:02;4.20;;;0.73;;
12302;SDS011;6214;48.012;7.862;2023-11-19T12:43:30;4.00;;;0.60;;
12302;SDS011;6214;48.012;7.862;2023-11-19T12:45:58;4.65;;;0.65;;
12302;SDS011;6214;48.012;7.862;2023-11-19T12:48:25;4.35;;;0.70;;
12302;SDS011;6214;48.012;7.862;2023-11-19T12:50:58;4.10;;;0.70;;
12302;SDS011;6214;48.012;7.862;2023-11-19T12:53:28;4.30;;;0.70;;
12302;SDS011;6214;48.012;7.862;2023-11-19T12:55:55;4.00;;;0.50;;
12302;SDS011;6214;48.012;7.862;2023-11-19T12:58:34;4.10;;;0.60;;
12302;SDS011;6214;48.012;7.862;2023-11-19T13:01:05;4.00;;;0.70;;
12302;SDS011;6214;48.012;7.862;2023-11-19T13:03:34;4.00;;;0.60;;
12302;SDS011;6214;48.012;7.862;2023-11-19T13:06:06;4.00;;;0.60;;
12302;SDS011;6214;48.012;7.862;2023-11-19T13:08:43;4.20;;;0.60;;
12302;SDS011;6214;48.012;7.862;2023-11-19T13:11:11;4.20;;;0.70;;
12302;SDS011;6214;48.012;7.862;2023-11-19T13:16:26;4.10;;;0.70;;
12302;SDS011;6214;48.012;7.862;2023-11-19T13:18:54;4.10;;;0.70;;
12302;SDS011;6214;48.012;7.862;2023-11-19T13:21:21;4.68;;;1.33;;
12302;SDS011;6214;48.012;7.862;2023-11-19T13:23:49;4.50;;;0.90;;
12302;SDS011;6214;48.012;7.862;2023-11-19T13:26:16;4.70;;;1.30;;
12302;SDS011;6214;48.012;7.862;2023-11-19T13:28:43;4.65;;;1.27;;
12302;SDS011;6214;48.012;7.862;2023-11-19T13:31:10;4.53;;;1.00;;
12302;SDS011;6214;48.012;7.862;2023-11-19T13:33:37;4.43;;;1.00;;
12302;SDS011;6214;48.012;7.862;2023-11-19T13:36:04;5.07;;;1.20;;
12302;SDS011;6214;48.012;7.862;2023-11-19T13:38:35;4.30;;;0.80;;
12302;SDS011;6214;48.012;7.862;2023-11-19T13:41:02;4.80;;;1.10;;
12302;SDS011;6214;48.012;7.862;2023-11-19T13:43:33;5.20;;;1.10;;
12302;SDS011;6214;48.012;7.862;2023-11-19T13:46:00;4.35;;;1.00;;
12302;SDS011;6214;48.012;7.862;2023-11-19T13:48:27;4.85;;;1.40;;
12302;SDS011;6214;48.012;7.862;2023-11-19T13:50:55;5.90;;;2.35;;
12302;SDS011;6214;48.012;7.862;2023-11-19T13:53:22;4.95;;;1.80;;
12302;SDS011;6214;48.012;7.862;2023-11-19T13:55:50;6.38;;;2.30;;
12302;SDS011;6214;48.012;7.862;2023-11-19T13:58:17;4.50;;;1.30;;
12302;SDS011;6214;48.012;7.862;2023-11-19T14:00:44;4.30;;;1.10;;
12302;SDS011;6214;48.012;7.862;2023-11-19T14:03:11;4.60;;;1.17;;
12302;SDS011;6214;48.012;7.862;2023-11-19T14:05:38;4.28;;;1.00;;
12302;SDS011;6214;48.012;7.862;2023-11-19T14:08:07;4.30;;;0.90;;
12302;SDS011;6214;48.012;7.862;2023-11-19T14:10:51;4.80;;;1.08;;
12302;SDS011;6214;48.012;7.862;2023-11-19T14:13:18;4.60;;;1.30;;
12302;SDS011;6214;48.012;7.862;2023-11-19T14:15:45;4.60;;;1.10;;
12302;SDS011;6214;48.012;7.862;2023-11-19T14:18:15;4.00;;;0.70;;
12302;SDS011;6214;48.012;7.862;2023-11-19T14:20:42;4.00;;;0.60;;
12302;SDS011;6214;48.012;7.862;2023-11-19T14:23:10;4.00;;;0.80;;
12302;SDS011;6214;48.012;7.862;2023-11-19T14:25:37;4.50;;;0.80;;
12302;SDS011;6214;48.012;7.862;2023-11-19T14:28:04;4.28;;;0.70;;
12302;SDS011;6214;48.012;7.862;2023-11-19T14:30:32;4.10;;;0.70;;
12302;SDS011;6214;48.012;7.862;2023-11-19T14:33:01;4.20;;;0.80;;
12302;SDS011;6214;48.012;7.862;2023-11-19T14:35:28;5.00;;;0.98;;
12302;SDS011;6214;48.012;7.862;2023-11-19T14:37:56;4.43;;;0.93;;
12302;SDS011;6214;48.012;7.862;2023-11-19T14:40:23;4.57;;;0.90;;
12302;SDS011;6214;48.012;7.862;2023-11-19T14:43:08;4.10;;;0.80;;
12302;SDS011;6214;48.012;7.862;2023-11-19T14:45:38;4.20;;;0.80;;
12302;SDS011;6214;48.012;7.862;2023-11-19T14:48:15;4.82;;;1.00;;
12302;SDS011;6214;48.012;7.862;2023-11-19T14:50:43;4.38;;;0.80;;
12302;SDS011;6214;48.012;7.862;2023-11-19T14:53:11;4.55;;;0.90;;
12302;SDS011;6214;48.012;7.862;2023-11-19T14:55:38;4.30;;;0.70;;
12302;SDS011;6214;48.012;7.862;2023-11-19T14:58:05;4.10;;;0.70;;
12302;SDS011;6214;48.012;7.862;2023-11-19T15:00:37;4.70;;;0.90;;
12302;SDS011;6214;48.012;7.862;2023-11-19T15:03:04;4.40;;;0.82;;
12302;SDS011;6214;48.012;7.862;2023-11-19T15:05:33;4.50;;;0.80;;
12302;SDS011;6214;48.012;7.862;2023-11-19T15:08:01;4.68;;;1.00;;
12302;SDS011;6214;48.012;7.862;2023-11-19T15:10:29;5.00;;;0.82;;
12302;SDS011;6214;48.012;7.862;2023-11-19T15:12:56;4.43;;;0.73;;
12302;SDS011;6214;48.012;7.862;2023-11-19T15:15:24;4.80;;;0.80;;
12302;SDS011;6214;48.012;7.862;2023-11-19T15:17:54;4.20;;;0.90;;
12302;SDS011;6214;48.012;7.862;2023-11-19T15:20:21;4.10;;;0.70;;
12302;SDS011;6214;48.012;7.862;2023-11-19T15:22:47;4.57;;;0.80;;
12302;SDS011;6214;48.012;7.862;2023-11-19T15:25:14;4.55;;;0.80;;
12302;SDS011;6214;48.012;7.862;2023-11-19T15:27:41;4.10;;;0.80;;
12302;SDS011;6214;48.012;7.862;2023-11-19T15:30:08;4.47;;;0.80;;
12302;SDS011;6214;48.012;7.862;2023-11-19T15:32:37;4.30;;;1.00;;
12302;SDS011;6214;48.012;7.862;2023-11-19T15:35:05;4.40;;;0.80;;
12302;SDS011;6214;48.012;7.862;2023-11-19T15:37:34;5.20;;;0.80;;
12302;SDS011;6214;48.012;7.862;2023-11-19T15:40:02;4.10;;;0.80;;